Time;durP1;ratioP1;P1;durP2;ratioP2;P2;SDS_P1;SDS_P2;PMS_P1;PMS_P2;Temp;Humidity;BMP_temperature;BMP_pressure;BME280_temperature;BME280_humidity;BME280_pressure;Samples;Min_cycle;Max_cycle;Signal;HPM_P1;HPM_P2
2024/02/25 00:01:57;;;;;;;6.27;5.07;;;;;;;10.57;64.00;96453.84;5095606;28;20596;-86
2024/02/25 00:04:24;;;;;;;5.30;4.67;;;;;;;10.94;63.55;96503.63;5093647;28;20566;-86
2024/02/25 00:06:51;;;;;;;6.40;4.73;;;;;;;10.80;63.66;96502.75;5094510;28;20199;-86
2024/02/25 00:09:19;;;;;;;8.77;5.57;;;;;;;10.89;63.89;96509.81;5103763;28;20677;-86
2024/02/25 00:11:46;;;;;;;4.60;4.20;;;;;;;11.03;63.67;96520.50;5114917;28;20203;-86
2024/02/25 00:14:13;;;;;;;6.90;3.80;;;;;;;10.98;64.24;96515.28;5115536;28;20210;-87
2024/02/25 00:16:39;;;;;;;6.17;4.40;;;;;;;10.76;64.30;96482.06;5105039;28;20245;-86
2024/02/25 00:19:06;;;;;;;6.83;4.13;;;;;;;11.03;64.55;96509.88;5094976;28;20204;-86
2024/02/25 00:21:33;;;;;;;13.50;10.20;;;;;;;10.72;64.97;96469.59;5093922;28;20343;-86
2024/02/25 00:24:00;;;;;;;5.40;4.80;;;;;;;11.04;64.06;96500.81;5094806;28;20652;-86
2024/02/25 00:26:28;;;;;;;18.73;13.73;;;;;;;10.88;64.46;96502.94;5095738;28;20196;-86
2024/02/25 00:28:55;;;;;;;12.90;9.87;;;;;;;10.75;65.13;96519.59;5109894;28;20628;-86
2024/02/25 00:31:21;;;;;;;6.73;6.10;;;;;;;10.69;64.80;96512.78;5095095;28;20188;-86
2024/02/25 00:33:48;;;;;;;11.60;6.00;;;;;;;10.55;65.21;96512.69;5094113;28;20208;-86
2024/02/25 00:36:15;;;;;;;11.33;9.40;;;;;;;10.61;65.52;96518.72;5094003;28;20620;-86
2024/02/25 00:38:42;;;;;;;7.87;5.80;;;;;;;10.14;65.41;96429.94;5109572;28;20592;-86
2024/02/25 00:41:08;;;;;;;6.80;6.07;;;;;;;10.36;65.92;96506.56;5102604;28;20209;-86
2024/02/25 00:43:36;;;;;;;6.30;5.70;;;;;;;10.13;65.74;96476.25;5094989;28;20200;-86
2024/02/25 00:46:03;;;;;;;5.43;4.93;;;;;;;10.58;64.84;96508.69;5108211;28;20230;-87
2024/02/25 00:48:30;;;;;;;9.73;4.80;;;;;;;10.39;65.64;96506.81;5115065;28;20260;-87
2024/02/25 00:50:57;;;;;;;5.23;4.33;;;;;;;10.35;65.99;96471.19;5113500;28;20219;-87
2024/02/25 00:53:24;;;;;;;6.37;5.13;;;;;;;10.59;66.01;96511.06;5114825;28;20191;-87
2024/02/25 00:55:50;;;;;;;6.20;5.10;;;;;;;10.57;65.90;96509.75;5114779;28;20786;-87
2024/02/25 00:58:17;;;;;;;5.93;4.37;;;;;;;10.45;66.35;96508.31;5114868;28;20641;-86
2024/02/25 01:00:46;;;;;;;9.13;5.73;;;;;;;10.42;66.81;96506.22;5097143;28;20200;-86
2024/02/25 01:03:12;;;;;;;5.27;4.77;;;;;;;10.42;65.64;96500.13;5094250;28;20289;-87
2024/02/25 01:05:42;;;;;;;8.27;6.27;;;;;;;10.53;65.75;96510.34;5097247;28;20198;-86
2024/02/25 01:08:09;;;;;;;9.93;7.63;;;;;;;9.89;65.50;96426.56;5096405;28;20193;-87
2024/02/25 01:10:35;;;;;;;6.07;5.37;;;;;;;10.35;66.00;96500.47;5093423;28;20310;-86
2024/02/25 01:13:02;;;;;;;7.63;4.93;;;;;;;10.08;65.79;96450.53;5094453;28;20587;-86
2024/02/25 01:15:29;;;;;;;5.17;4.67;;;;;;;10.52;65.43;96500.75;5094096;28;20200;-87
2024/02/25 01:17:57;;;;;;;7.57;4.80;;;;;;;10.32;65.23;96442.50;5094001;28;20196;-86
2024/02/25 01:20:24;;;;;;;7.80;6.10;;;;;;;10.65;64.95;96477.19;5094298;28;20620;-86
2024/02/25 01:22:51;;;;;;;9.30;5.00;;;;;;;10.12;65.93;96453.41;5094203;28;20204;-86
2024/02/25 01:25:18;;;;;;;9.00;5.77;;;;;;;10.36;65.95;96478.09;5093911;28;20196;-86
2024/02/25 01:27:45;;;;;;;6.10;5.50;;;;;;;10.41;65.31;96485.22;5094237;28;20560;-87
2024/02/25 01:30:14;;;;;;;7.87;5.37;;;;;;;10.20;66.36;96497.97;5093557;28;20224;-87
2024/02/25 01:32:40;;;;;;;5.63;5.13;;;;;;;10.07;65.77;96494.16;5093876;28;20196;-86
2024/02/25 01:35:12;;;;;;;6.80;5.13;;;;;;;10.12;65.95;96478.13;5093512;28;20196;-87
2024/02/25 01:37:39;;;;;;;5.50;5.00;;;;;;;10.05;66.40;96486.44;5112028;28;20234;-87
2024/02/25 01:40:09;;;;;;;6.90;4.77;;;;;;;9.98;66.26;96483.31;5113755;28;20209;-85
2024/02/25 01:42:37;;;;;;;5.90;5.27;;;;;;;9.60;67.40;96449.75;5092155;28;20654;-86
2024/02/25 01:45:05;;;;;;;5.97;5.10;;;;;;;10.05;66.73;96483.78;5112081;28;20788;-86
2024/02/25 01:47:31;;;;;;;8.37;4.33;;;;;;;9.72;66.80;96444.84;5101106;28;20204;-87
2024/02/25 01:49:59;;;;;;;5.50;4.47;;;;;;;9.44;67.39;96417.25;5093079;28;20265;-86
2024/02/25 01:52:28;;;;;;;7.13;4.07;;;;;;;10.03;66.85;96480.63;5092350;28;20247;-87
2024/02/25 01:54:57;;;;;;;5.67;4.90;;;;;;;10.17;66.93;96494.00;5093547;28;20550;-87
2024/02/25 01:57:24;;;;;;;7.23;4.67;;;;;;;10.44;65.76;96484.66;5091452;28;20192;-86
2024/02/25 01:59:52;;;;;;;7.57;5.17;;;;;;;10.14;65.91;96445.91;5093183;28;20212;-86
2024/02/25 02:02:19;;;;;;;7.63;4.37;;;;;;;10.27;65.94;96501.91;5091423;28;20659;-86
2024/02/25 02:04:46;;;;;;;4.77;4.37;;;;;;;9.90;66.53;96454.72;5093430;28;20677;-87
2024/02/25 02:07:14;;;;;;;7.47;4.83;;;;;;;10.13;67.10;96494.88;5092202;28;20211;-86
2024/02/25 02:09:42;;;;;;;4.80;4.40;;;;;;;9.95;67.14;96467.16;5101198;28;20308;-86
2024/02/25 02:12:09;;;;;;;7.03;4.00;;;;;;;10.11;66.99;96483.72;5100363;28;20198;-86
2024/02/25 02:14:36;;;;;;;8.10;4.50;;;;;;;10.01;66.60;96468.69;5112322;28;20638;-86
2024/02/25 02:17:05;;;;;;;5.80;4.43;;;;;;;10.15;67.23;96482.09;5113415;28;20240;-86
2024/02/25 02:19:31;;;;;;;6.17;5.50;;;;;;;9.99;67.01;96492.13;5112170;28;20207;-86
2024/02/25 02:22:00;;;;;;;6.37;4.57;;;;;;;9.89;67.38;96501.00;5113075;28;20200;-87
2024/02/25 02:24:26;;;;;;;12.80;8.13;;;;;;;9.48;67.97;96439.50;5113281;28;20198;-86
2024/02/25 02:26:53;;;;;;;6.97;5.77;;;;;;;9.62;68.25;96464.34;5112956;28;20196;-87
2024/02/25 02:29:20;;;;;;;8.30;5.30;;;;;;;9.59;68.36;96443.66;5112464;28;20202;-87
2024/02/25 02:31:47;;;;;;;6.63;5.50;;;;;;;9.82;68.01;96471.28;5113392;28;20208;-86
2024/02/25 02:34:13;;;;;;;7.63;4.90;;;;;;;9.35;69.26;96464.09;5112987;28;20192;-87
2024/02/25 02:36:40;;;;;;;6.23;4.73;;;;;;;9.05;69.59;96437.53;5113180;28;20195;-87
2024/02/25 02:39:09;;;;;;;6.73;4.70;;;;;;;9.55;69.18;96483.28;5103082;28;20203;-86
2024/02/25 02:41:35;;;;;;;9.43;6.70;;;;;;;9.65;69.27;96466.44;5095169;28;20192;-86
2024/02/25 02:44:02;;;;;;;6.10;5.43;;;;;;;9.76;68.68;96472.44;5113242;28;20205;-87
2024/02/25 02:46:29;;;;;;;5.13;4.23;;;;;;;9.75;68.22;96470.84;5113260;28;20246;-86
2024/02/25 02:48:56;;;;;;;4.70;4.30;;;;;;;9.39;69.16;96451.84;5112660;28;20196;-86
2024/02/25 02:51:23;;;;;;;7.67;4.83;;;;;;;9.62;68.62;96476.84;5112586;28;20270;-86
2024/02/25 02:53:49;;;;;;;4.40;4.00;;;;;;;9.81;68.53;96485.66;5113082;28;20207;-87
2024/02/25 02:56:17;;;;;;;6.13;4.53;;;;;;;9.77;68.88;96476.69;5111423;28;20195;-87
2024/02/25 02:58:48;;;;;;;5.67;4.57;;;;;;;9.86;68.62;96493.56;5112888;28;20201;-86
2024/02/25 03:01:15;;;;;;;10.20;5.10;;;;;;;9.81;67.75;96493.66;5112369;28;20226;-86
2024/02/25 03:03:42;;;;;;;6.23;5.57;;;;;;;9.84;67.28;96506.38;5105042;28;20196;-87
2024/02/25 03:06:09;;;;;;;6.20;5.57;;;;;;;9.85;67.46;96493.88;5091263;28;20196;-86
2024/02/25 03:08:35;;;;;;;5.60;5.00;;;;;;;9.76;68.00;96496.38;5091327;28;20708;-86
2024/02/25 03:11:02;;;;;;;6.83;6.23;;;;;;;9.82;67.41;96503.19;5092174;28;20674;-86
2024/02/25 03:13:30;;;;;;;9.07;6.20;;;;;;;9.57;67.92;96498.16;5102370;28;20640;-86
2024/02/25 03:15:58;;;;;;;14.87;11.77;;;;;;;9.68;68.02;96511.06;5112519;28;20195;-87
2024/02/25 03:18:25;;;;;;;9.47;8.40;;;;;;;9.37;68.70;96528.34;5111219;28;20199;-87
2024/02/25 03:20:52;;;;;;;7.50;5.67;;;;;;;9.62;68.70;96516.69;5113010;28;20670;-87
2024/02/25 03:23:19;;;;;;;6.90;6.20;;;;;;;9.31;69.10;96487.78;5112757;28;20207;-86
2024/02/25 03:25:46;;;;;;;6.00;5.40;;;;;;;9.21;68.81;96472.72;5112669;28;20295;-87
2024/02/25 03:28:13;;;;;;;6.87;5.30;;;;;;;9.57;69.52;96522.06;5109593;28;20200;-86
2024/02/25 03:30:41;;;;;;;5.30;4.80;;;;;;;9.64;69.24;96531.31;5111830;28;20284;-86
2024/02/25 03:33:08;;;;;;;6.13;4.13;;;;;;;9.45;69.50;96519.78;5103735;28;20200;-86
2024/02/25 03:35:35;;;;;;;5.77;4.90;;;;;;;9.26;69.72;96493.13;5094680;28;20200;-86
2024/02/25 03:38:02;;;;;;;7.83;4.53;;;;;;;9.26;70.51;96498.44;5102914;28;20203;-86
2024/02/25 03:40:28;;;;;;;5.70;4.57;;;;;;;9.58;69.74;96510.38;5115247;28;20654;-86
2024/02/25 03:42:55;;;;;;;5.30;4.80;;;;;;;9.78;69.39;96510.16;5115994;28;20200;-86
2024/02/25 03:45:22;;;;;;;7.03;4.73;;;;;;;9.90;69.29;96507.09;5114693;28;20702;-86
2024/02/25 03:47:50;;;;;;;5.97;4.47;;;;;;;9.38;69.67;96469.66;5112435;28;20276;-86
2024/02/25 03:50:17;;;;;;;5.27;4.77;;;;;;;9.58;70.27;96497.09;5095558;28;20226;-86
2024/02/25 03:52:45;;;;;;;5.63;4.80;;;;;;;9.63;70.17;96518.28;5094167;28;20258;-86
2024/02/25 03:55:11;;;;;;;5.63;4.50;;;;;;;9.22;69.77;96486.81;5095436;28;20625;-86
2024/02/25 03:57:39;;;;;;;4.67;4.07;;;;;;;9.48;70.77;96522.66;5102823;28;20260;-86
2024/02/25 04:00:08;;;;;;;6.33;4.63;;;;;;;9.76;69.60;96525.59;5115817;28;20204;-86
2024/02/25 04:02:34;;;;;;;8.17;4.57;;;;;;;9.43;69.83;96498.81;5116026;28;20607;-86
2024/02/25 04:05:03;;;;;;;6.83;5.57;;;;;;;9.23;69.11;96501.66;5116163;28;20198;-87
2024/02/25 04:07:29;;;;;;;8.93;5.70;;;;;;;9.42;69.75;96537.06;5111428;28;20277;-95
2024/02/25 04:09:56;;;;;;;5.40;4.90;;;;;;;9.20;70.97;96534.06;5096234;28;20269;-95
2024/02/25 04:12:23;;;;;;;5.47;4.70;;;;;;;9.09;70.86;96503.34;5105211;28;20203;-96
2024/02/25 04:14:50;;;;;;;8.27;5.23;;;;;;;9.18;71.15;96515.00;5116203;28;20678;-94
2024/02/25 04:17:18;;;;;;;6.97;5.17;;;;;;;9.28;70.62;96531.59;5115196;28;20658;-95
2024/02/25 04:19:44;;;;;;;6.00;5.20;;;;;;;9.19;70.55;96529.84;5116409;28;20294;-94
2024/02/25 04:22:12;;;;;;;7.00;6.30;;;;;;;9.23;70.32;96546.81;5116165;28;20210;-93
2024/02/25 04:24:40;;;;;;;7.57;6.87;;;;;;;9.08;70.46;96531.78;5115381;28;20200;-93
2024/02/25 04:27:06;;;;;;;11.37;9.73;;;;;;;9.10;70.80;96540.28;5114868;28;20252;-94
2024/02/25 04:29:33;;;;;;;11.03;8.60;;;;;;;9.00;70.98;96509.28;5115883;28;20199;-94
2024/02/25 04:32:00;;;;;;;10.40;8.57;;;;;;;9.07;71.28;96543.47;5115874;28;20219;-93
2024/02/25 04:34:27;;;;;;;12.27;7.40;;;;;;;8.98;71.45;96516.72;5115733;28;20200;-92
2024/02/25 04:36:54;;;;;;;6.90;6.10;;;;;;;8.74;71.32;96468.84;5112933;28;20195;-94
2024/02/25 04:39:22;;;;;;;7.17;6.47;;;;;;;9.22;71.15;96539.91;5110321;28;20229;-94
2024/02/25 04:41:50;;;;;;;12.00;7.00;;;;;;;9.16;70.91;96539.16;5095010;28;20197;-94
2024/02/25 04:44:16;;;;;;;9.20;6.27;;;;;;;9.25;70.29;96536.69;5095943;28;20196;-93
2024/02/25 04:46:43;;;;;;;10.43;7.40;;;;;;;9.23;70.00;96541.50;5114771;28;20231;-94
2024/02/25 04:49:11;;;;;;;7.73;6.67;;;;;;;8.91;71.45;96537.47;5107149;28;20200;-95
2024/02/25 04:51:38;;;;;;;14.03;9.40;;;;;;;9.15;70.15;96550.06;5113516;28;20220;-95
2024/02/25 04:54:05;;;;;;;8.83;7.93;;;;;;;9.20;70.15;96550.78;5110844;28;20196;-95
2024/02/25 04:56:33;;;;;;;14.67;10.50;;;;;;;9.01;71.10;96557.84;5094870;28;20211;-94
2024/02/25 04:59:00;;;;;;;10.80;7.70;;;;;;;9.01;71.40;96545.34;5115397;28;20206;-93
2024/02/25 05:01:27;;;;;;;7.70;6.90;;;;;;;8.84;71.44;96520.28;5114678;28;20610;-94
2024/02/25 05:03:54;;;;;;;8.93;7.00;;;;;;;9.11;70.79;96544.50;5115214;28;20624;-94
2024/02/25 05:06:24;;;;;;;20.17;12.73;;;;;;;8.93;71.12;96553.91;5115473;28;20613;-93
2024/02/25 05:08:50;;;;;;;9.80;8.23;;;;;;;8.27;71.29;96503.88;5115394;28;20199;-94
2024/02/25 05:11:17;;;;;;;10.57;9.47;;;;;;;8.70;71.70;96554.59;5095386;28;20293;-93
2024/02/25 05:13:45;;;;;;;16.93;9.70;;;;;;;8.93;71.81;96558.44;5094418;28;20257;-94
2024/02/25 05:16:12;;;;;;;10.03;8.17;;;;;;;8.86;71.75;96564.03;5094418;28;20192;-94
2024/02/25 05:18:40;;;;;;;8.47;7.63;;;;;;;8.95;71.49;96551.78;5094918;28;20277;-95
2024/02/25 05:21:07;;;;;;;18.90;17.00;;;;;;;9.19;70.38;96559.84;5094738;28;20200;-95
2024/02/25 05:23:34;;;;;;;16.47;14.23;;;;;;;9.15;69.76;96544.75;5094962;28;20204;-95
2024/02/25 05:26:01;;;;;;;17.00;14.07;;;;;;;8.47;71.35;96476.47;5094470;28;20253;-94
2024/02/25 05:28:28;;;;;;;10.30;8.50;;;;;;;8.98;70.76;96523.88;5094738;28;20249;-93
2024/02/25 05:30:56;;;;;;;9.73;6.43;;;;;;;9.06;70.83;96526.75;5094664;28;20307;-93
2024/02/25 05:33:23;;;;;;;7.60;6.80;;;;;;;9.14;70.78;96516.59;5094993;28;20212;-92
2024/02/25 05:35:50;;;;;;;8.23;6.87;;;;;;;9.01;70.74;96500.22;5095256;28;20201;-94
2024/02/25 05:38:17;;;;;;;8.63;7.30;;;;;;;8.95;71.50;96505.88;5112492;28;20646;-91
2024/02/25 05:40:44;;;;;;;10.63;7.77;;;;;;;8.95;71.16;96488.09;5107973;28;20196;-94
2024/02/25 05:43:11;;;;;;;9.60;8.30;;;;;;;9.01;71.61;96520.69;5103192;28;20207;-92
2024/02/25 05:45:41;;;;;;;7.70;6.90;;;;;;;8.66;72.27;96534.97;5101851;28;20223;-92
2024/02/25 05:48:09;;;;;;;9.43;7.73;;;;;;;8.48;73.13;96550.47;5094730;28;20200;-94
2024/02/25 05:50:36;;;;;;;9.27;7.43;;;;;;;8.71;72.43;96538.41;5093357;28;20689;-93
2024/02/25 05:53:03;;;;;;;12.00;8.23;;;;;;;8.97;71.73;96552.28;5094675;28;20217;-93
2024/02/25 05:55:29;;;;;;;7.93;7.13;;;;;;;8.79;71.76;96552.97;5094670;28;20196;-93
2024/02/25 05:57:56;;;;;;;9.77;7.40;;;;;;;8.90;72.39;96551.00;5095198;28;20200;-93
2024/02/25 06:00:23;;;;;;;9.40;7.43;;;;;;;8.98;72.07;96550.41;5098640;28;20200;-94
2024/02/25 06:02:50;;;;;;;9.50;6.63;;;;;;;8.91;72.09;96558.72;5113362;28;20225;-89
2024/02/25 06:05:19;;;;;;;7.50;6.70;;;;;;;9.02;72.43;96554.94;5114270;28;20544;-92
2024/02/25 06:07:46;;;;;;;9.27;7.90;;;;;;;9.12;71.68;96550.59;5098630;28;20204;-93
2024/02/25 06:10:13;;;;;;;9.53;6.80;;;;;;;9.30;71.39;96568.53;5093604;28;20638;-94
2024/02/25 06:12:40;;;;;;;10.40;8.23;;;;;;;9.21;71.52;96580.78;5092482;28;20740;-92
2024/02/25 06:15:11;;;;;;;17.47;15.73;;;;;;;9.40;71.34;96567.63;5100887;28;20248;-93
2024/02/25 06:17:38;;;;;;;40.73;33.17;;;;;;;9.41;70.57;96542.66;5113503;28;20230;-92
2024/02/25 06:20:06;;;;;;;29.47;24.00;;;;;;;9.15;70.65;96481.81;5113085;28;20207;-95
2024/02/25 06:22:39;;;;;;;19.53;17.50;;;;;;;9.51;70.66;96530.06;5118816;28;20207;-95
2024/02/25 06:25:06;;;;;;;16.47;13.17;;;;;;;9.66;70.46;96542.44;5114079;28;20201;-96
2024/02/25 06:27:35;;;;;;;17.27;11.90;;;;;;;9.45;70.23;96509.16;5107352;28;20265;-95
2024/02/25 06:30:02;;;;;;;9.33;7.53;;;;;;;9.87;70.28;96536.91;5096463;28;20208;-95
2024/02/25 06:32:30;;;;;;;11.13;9.60;;;;;;;9.87;70.27;96543.00;5100646;28;20250;-95
2024/02/25 06:34:57;;;;;;;11.60;8.07;;;;;;;9.93;70.27;96525.94;5095035;28;20271;-94
2024/02/25 06:37:24;;;;;;;9.57;7.60;;;;;;;9.80;70.54;96537.25;5101528;28;20208;-95
2024/02/25 06:39:52;;;;;;;10.07;7.13;;;;;;;10.02;69.75;96550.81;5121110;28;20195;-95
2024/02/25 06:42:19;;;;;;;8.67;6.93;;;;;;;10.14;69.53;96561.06;5115224;28;20543;-96
2024/02/25 06:44:46;;;;;;;11.27;7.63;;;;;;;9.57;69.53;96506.13;5113238;28;20614;-95
2024/02/25 06:47:13;;;;;;;9.67;7.40;;;;;;;9.39;69.28;96452.63;5114019;28;20201;-96
2024/02/25 06:49:41;;;;;;;9.40;7.87;;;;;;;9.71;69.64;96526.41;5115208;28;20192;-96
2024/02/25 06:52:08;;;;;;;9.47;7.90;;;;;;;9.71;68.30;96485.78;5115191;28;20221;-96
2024/02/25 06:54:38;;;;;;;8.20;6.80;;;;;;;10.11;68.67;96558.19;5119083;28;20261;-95
2024/02/25 06:57:06;;;;;;;9.10;6.83;;;;;;;9.71;68.21;96461.84;5100611;28;20200;-95
2024/02/25 06:59:33;;;;;;;8.23;6.53;;;;;;;10.56;68.47;96585.34;5133123;22;20203;-95
2024/02/25 07:02:00;;;;;;;8.30;6.97;;;;;;;9.51;68.82;96438.97;5062259;28;20224;-96
2024/02/25 07:04:27;;;;;;;10.80;9.73;;;;;;;10.06;69.12;96503.19;5055882;28;20291;-95
2024/02/25 07:06:54;;;;;;;9.70;8.37;;;;;;;10.34;70.06;96541.47;5069649;28;20210;-95
2024/02/25 07:09:24;;;;;;;11.50;7.70;;;;;;;9.68;70.43;96451.78;5074916;28;20194;-94
2024/02/25 07:11:51;;;;;;;19.47;14.37;;;;;;;9.93;69.50;96450.72;5076554;28;20237;-96
2024/02/25 07:14:21;;;;;;;12.97;9.20;;;;;;;10.40;69.28;96512.91;5071537;28;20202;-95
2024/02/25 07:16:50;;;;;;;10.37;6.90;;;;;;;10.31;68.73;96480.06;5068537;28;20668;-96
2024/02/25 07:19:17;;;;;;;12.40;7.50;;;;;;;10.89;68.82;96557.75;5073047;28;20260;-96
2024/02/25 07:21:44;;;;;;;11.83;6.60;;;;;;;10.42;68.42;96484.16;5071093;28;20199;-96
2024/02/25 07:24:11;;;;;;;13.13;8.27;;;;;;;10.83;68.79;96516.28;5073867;28;20265;-96
2024/02/25 07:26:40;;;;;;;7.50;6.80;;;;;;;10.95;67.86;96486.56;5073086;28;20200;-95
2024/02/25 07:29:07;;;;;;;6.47;5.33;;;;;;;11.46;67.89;96531.00;5071358;28;20273;-95
2024/02/25 07:31:38;;;;;;;9.30;7.20;;;;;;;11.65;68.47;96528.28;5069735;28;20221;-96
2024/02/25 07:34:07;;;;;;;11.67;7.20;;;;;;;11.93;68.32;96550.50;5053038;28;20198;-96
2024/02/25 07:36:36;;;;;;;90.23;44.37;;;;;;;12.08;68.15;96549.41;5069380;28;20232;-96
2024/02/25 07:39:03;;;;;;;30.97;20.43;;;;;;;12.09;67.74;96543.00;5067969;28;20227;-96
2024/02/25 07:41:30;;;;;;;32.57;21.73;;;;;;;12.13;67.82;96539.44;5066141;28;20205;-95
2024/02/25 07:43:57;;;;;;;57.40;33.70;;;;;;;11.92;68.13;96504.34;5067603;28;20198;-96
2024/02/25 07:46:27;;;;;;;53.80;38.97;;;;;;;11.84;67.61;96480.25;5068071;28;20205;-96
2024/02/25 07:48:55;;;;;;;126.93;73.70;;;;;;;12.23;67.73;96530.44;5067495;28;20194;-96
2024/02/25 07:51:22;;;;;;;28.30;20.50;;;;;;;11.61;67.42;96418.00;5066786;28;20221;-96
2024/02/25 07:53:49;;;;;;;12.00;9.20;;;;;;;11.92;67.02;96456.34;5066511;28;20269;-96
2024/02/25 07:56:20;;;;;;;11.63;6.80;;;;;;;11.87;66.15;96437.00;5064128;28;20232;-96
2024/02/25 07:58:47;;;;;;;12.80;9.40;;;;;;;12.12;65.11;96446.34;5062234;28;20209;-96
2024/02/25 08:01:14;;;;;;;9.73;7.33;;;;;;;12.74;64.64;96508.00;5061564;28;20221;-96
2024/02/25 08:03:41;;;;;;;12.27;8.17;;;;;;;12.33;64.45;96442.16;5077387;28;20200;-96
2024/02/25 08:06:09;;;;;;;9.47;5.97;;;;;;;12.91;64.25;96534.84;5082250;28;20200;-96
2024/02/25 08:08:36;;;;;;;7.27;5.80;;;;;;;12.51;64.21;96485.81;5075925;28;20205;-96
2024/02/25 08:11:04;;;;;;;7.67;6.17;;;;;;;12.60;64.61;96491.22;5060008;28;20206;-95
2024/02/25 08:13:31;;;;;;;8.30;6.27;;;;;;;12.37;65.09;96498.41;5058403;28;20201;-92
2024/02/25 08:15:58;;;;;;;8.87;6.43;;;;;;;12.31;64.93;96503.03;5055408;28;20193;-87
2024/02/25 08:18:25;;;;;;;8.27;6.13;;;;;;;12.33;64.49;96470.72;5052455;28;20198;-86
2024/02/25 08:20:51;;;;;;;6.60;5.93;;;;;;;12.55;64.28;96518.84;5053690;28;20213;-86
2024/02/25 08:23:20;;;;;;;6.43;5.47;;;;;;;12.42;64.27;96527.63;5054914;28;20212;-87
2024/02/25 08:25:47;;;;;;;6.63;5.93;;;;;;;12.45;63.66;96517.16;5053443;28;20213;-90
2024/02/25 08:28:13;;;;;;;18.20;6.87;;;;;;;12.39;63.84;96534.38;5055031;28;20201;-89
2024/02/25 08:30:40;;;;;;;15.87;8.00;;;;;;;12.39;63.84;96545.06;5054248;28;20198;-87
2024/02/25 08:33:07;;;;;;;8.20;5.77;;;;;;;12.40;64.07;96540.50;5053917;28;20271;-84
2024/02/25 08:35:34;;;;;;;7.73;5.80;;;;;;;11.96;63.76;96452.00;5051971;28;20674;-87
2024/02/25 08:38:01;;;;;;;7.20;6.57;;;;;;;12.51;63.65;96517.84;5053948;28;20242;-88
2024/02/25 08:40:30;;;;;;;16.60;7.10;;;;;;;12.68;65.30;96520.66;5053746;28;20619;-87
2024/02/25 08:42:57;;;;;;;8.70;6.60;;;;;;;12.73;65.70;96535.78;5053687;28;20229;-87
2024/02/25 08:45:23;;;;;;;10.33;7.50;;;;;;;12.82;65.57;96533.22;5053787;28;20209;-87
2024/02/25 08:47:50;;;;;;;8.40;6.40;;;;;;;12.78;65.85;96525.00;5054932;28;20229;-88
2024/02/25 08:50:17;;;;;;;8.37;5.77;;;;;;;12.73;66.85;96535.78;5053455;28;20602;-87
2024/02/25 08:52:44;;;;;;;11.43;7.07;;;;;;;12.76;66.25;96537.06;5054679;28;20255;-88
2024/02/25 08:55:11;;;;;;;14.30;6.97;;;;;;;12.65;66.47;96531.16;5055130;28;20268;-88
2024/02/25 08:57:39;;;;;;;13.03;6.43;;;;;;;12.24;66.77;96465.31;5053489;28;20201;-88
2024/02/25 09:00:07;;;;;;;12.30;6.70;;;;;;;12.92;66.68;96531.09;5054287;28;20252;-87
2024/02/25 09:02:35;;;;;;;9.90;6.80;;;;;;;12.95;65.65;96525.16;5054985;28;20255;-88
2024/02/25 09:05:02;;;;;;;11.27;7.10;;;;;;;13.22;64.81;96472.69;5055224;28;20202;-88
2024/02/25 09:07:29;;;;;;;8.63;6.63;;;;;;;13.70;63.86;96520.13;5053539;28;20198;-88
2024/02/25 09:09:56;;;;;;;7.03;5.63;;;;;;;13.71;63.50;96513.72;5054810;28;20676;-88
2024/02/25 09:12:23;;;;;;;11.97;5.90;;;;;;;13.70;64.61;96517.47;5053185;28;20639;-87
2024/02/25 09:14:51;;;;;;;6.13;5.33;;;;;;;14.11;63.11;96519.06;5054149;28;20204;-88
2024/02/25 09:17:18;;;;;;;7.20;6.20;;;;;;;14.31;62.46;96526.50;5054254;28;20198;-88
2024/02/25 09:19:44;;;;;;;13.87;5.80;;;;;;;14.13;62.83;96490.91;5052839;28;20224;-87
2024/02/25 09:22:11;;;;;;;11.77;5.93;;;;;;;14.27;62.65;96527.44;5053097;28;20194;-88
2024/02/25 09:24:38;;;;;;;11.20;7.23;;;;;;;14.40;62.17;96503.25;5053312;28;20208;-88
2024/02/25 09:27:05;;;;;;;10.93;5.57;;;;;;;14.83;60.68;96525.84;5053251;28;20248;-87
2024/02/25 09:29:32;;;;;;;8.03;6.07;;;;;;;14.74;61.38;96528.50;5054132;28;20205;-87
2024/02/25 09:32:00;;;;;;;11.10;6.73;;;;;;;14.81;60.53;96511.97;5052459;28;20267;-88
2024/02/25 09:34:27;;;;;;;9.53;6.60;;;;;;;14.89;60.29;96501.25;5054191;28;20630;-88
2024/02/25 09:36:54;;;;;;;8.73;6.07;;;;;;;15.12;59.28;96501.09;5053675;28;20209;-87
2024/02/25 09:39:21;;;;;;;7.83;5.70;;;;;;;15.17;59.77;96499.03;5053603;28;20205;-87
2024/02/25 09:41:52;;;;;;;6.27;5.67;;;;;;;14.97;59.08;96456.78;5047687;28;20211;-88
2024/02/25 09:44:23;;;;;;;7.70;5.90;;;;;;;15.47;57.76;96488.41;5034243;28;20561;-87
2024/02/25 09:46:50;;;;;;;8.67;6.20;;;;;;;15.84;55.85;96492.28;5033721;28;20200;-88
2024/02/25 09:49:19;;;;;;;6.43;5.70;;;;;;;16.78;53.15;96486.69;5050359;28;20204;-88
2024/02/25 09:51:49;;;;;;;39.50;26.30;;;;;;;16.82;52.23;96441.91;5039018;28;20205;-88
2024/02/25 09:54:16;;;;;;;10.53;6.70;;;;;;;16.48;52.32;96491.28;5032851;28;20237;-88
2024/02/25 09:56:48;;;;;;;6.47;5.43;;;;;;;16.13;53.08;96443.16;5053303;28;20624;-88
2024/02/25 09:59:15;;;;;;;17.43;10.07;;;;;;;16.86;50.52;96480.47;5053479;28;20249;-88
2024/02/25 10:01:44;;;;;;;12.90;6.23;;;;;;;16.70;50.72;96473.31;5053583;28;20233;-88
2024/02/25 10:04:11;;;;;;;6.20;5.17;;;;;;;15.96;51.95;96421.00;5053913;28;20211;-88
2024/02/25 10:06:39;;;;;;;7.03;5.73;;;;;;;15.42;54.48;96394.72;5053608;28;20205;-88
2024/02/25 10:09:08;;;;;;;10.77;6.57;;;;;;;15.18;55.76;96446.22;5051773;28;20250;-88
2024/02/25 10:11:39;;;;;;;8.83;7.63;;;;;;;15.26;55.17;96410.53;5052457;28;20268;-87
2024/02/25 10:14:06;;;;;;;7.63;6.20;;;;;;;15.52;55.44;96455.25;5052134;28;20252;-87
2024/02/25 10:16:33;;;;;;;11.23;6.87;;;;;;;15.92;54.71;96436.97;5052945;28;20205;-87
2024/02/25 10:19:00;;;;;;;6.77;5.57;;;;;;;16.11;53.42;96444.63;5050733;28;20198;-88
2024/02/25 10:21:26;;;;;;;11.23;6.83;;;;;;;16.29;54.22;96405.78;5051308;28;20261;-88
2024/02/25 10:23:55;;;;;;;11.47;6.27;;;;;;;16.65;53.10;96436.66;5052166;28;20196;-88
2024/02/25 10:26:24;;;;;;;14.80;7.73;;;;;;;15.92;54.83;96385.97;5052774;28;20556;-87
2024/02/25 10:29:03;;;;;;;13.03;8.87;;;;;;;15.97;54.50;96460.16;5052703;28;20684;-88
2024/02/25 10:31:30;;;;;;;12.17;7.80;;;;;;;15.16;56.31;96394.78;5051304;28;20285;-87
2024/02/25 10:33:58;;;;;;;11.30;7.10;;;;;;;14.86;57.03;96400.06;5052368;28;20226;-88
2024/02/25 10:36:26;;;;;;;15.13;11.67;;;;;;;14.86;59.71;96450.97;5051325;28;20203;-88
2024/02/25 10:38:56;;;;;;;14.93;10.30;;;;;;;14.96;58.72;96433.00;5055524;28;20629;-86
2024/02/25 10:41:24;;;;;;;15.10;11.47;;;;;;;15.39;57.46;96435.59;5052616;28;20237;-87
2024/02/25 10:43:53;;;;;;;31.47;12.83;;;;;;;15.34;56.98;96444.59;5053173;28;20199;-88
2024/02/25 10:46:28;;;;;;;15.90;9.30;;;;;;;15.58;56.11;96413.75;5051182;28;20294;-87
2024/02/25 10:48:58;;;;;;;25.00;14.93;;;;;;;15.71;56.28;96407.38;5051827;28;20199;-87
2024/02/25 10:51:26;;;;;;;8.67;7.50;;;;;;;16.17;54.43;96410.28;5051576;28;20202;-87
2024/02/25 10:53:55;;;;;;;13.37;9.67;;;;;;;15.99;55.08;96420.34;5051496;28;20632;-88
2024/02/25 10:56:22;;;;;;;16.40;12.97;;;;;;;15.90;56.42;96412.34;5052656;28;20270;-88
2024/02/25 10:58:50;;;;;;;17.27;11.07;;;;;;;15.62;57.50;96393.22;5034775;28;20215;-88
2024/02/25 11:01:19;;;;;;;15.70;9.97;;;;;;;15.43;58.55;96408.91;5047005;28;20231;-87
2024/02/25 11:03:47;;;;;;;14.77;10.77;;;;;;;15.37;58.32;96402.91;5051929;28;20203;-87
2024/02/25 11:06:30;;;;;;;22.10;11.77;;;;;;;15.21;58.93;96409.91;5052146;28;20213;-87
2024/02/25 11:09:08;;;;;;;18.60;10.53;;;;;;;15.26;59.69;96399.81;5051140;28;20246;-87
2024/02/25 11:11:37;;;;;;;9.30;8.13;;;;;;;15.16;59.29;96389.44;5051320;28;20254;-87
2024/02/25 11:14:06;;;;;;;71.53;33.17;;;;;;;15.20;59.38;96390.38;5052525;28;20227;-87
2024/02/25 11:16:39;;;;;;;45.57;22.93;;;;;;;15.00;59.74;96359.69;5050943;28;20203;-87
2024/02/25 11:19:08;;;;;;;12.73;7.97;;;;;;;15.13;59.56;96374.75;5052164;28;20678;-88
2024/02/25 11:21:38;;;;;;;58.73;27.13;;;;;;;14.92;60.38;96352.44;5050386;28;20200;-88
2024/02/25 11:24:11;;;;;;;15.10;10.47;;;;;;;14.89;59.54;96350.41;5051675;28;20667;-87
2024/02/25 11:26:42;;;;;;;38.67;19.43;;;;;;;14.97;60.14;96389.00;5052438;28;20239;-87
2024/02/25 11:29:16;;;;;;;35.40;20.57;;;;;;;14.85;61.20;96385.09;5052415;28;20210;-87
2024/02/25 11:31:50;;;;;;;29.43;18.63;;;;;;;14.96;60.89;96379.41;5050960;28;20206;-87
2024/02/25 11:34:20;;;;;;;28.73;15.80;;;;;;;14.98;61.40;96383.31;5052070;28;20222;-87